createdAt,value
2023-03-28T00:01:52.194Z,3.04
2023-03-28T00:04:22.871Z,3.05
2023-03-28T00:06:50.932Z,3.17
2023-03-28T00:09:18.876Z,3.10
2023-03-28T00:11:47.668Z,3.13
2023-03-28T00:14:15.999Z,3.26
2023-03-28T00:16:46.803Z,3.33
2023-03-28T00:19:16.613Z,3.32
2023-03-28T00:21:47.756Z,3.41
2023-03-28T00:24:18.849Z,3.33
2023-03-28T00:26:49.517Z,3.26
2023-03-28T00:29:21.298Z,3.35
2023-03-28T00:31:49.904Z,3.43
2023-03-28T00:34:18.437Z,3.34
2023-03-28T00:36:47.618Z,3.43
2023-03-28T00:39:15.395Z,3.40
2023-03-28T00:41:45.200Z,3.35
2023-03-28T00:44:44.332Z,3.39
2023-03-28T00:47:32.151Z,3.44
2023-03-28T00:50:05.234Z,3.35
2023-03-28T00:52:40.230Z,3.31
2023-03-28T00:55:13.591Z,3.34
2023-03-28T00:57:41.932Z,3.39
2023-03-28T01:00:13.482Z,3.33
2023-03-28T01:02:45.880Z,3.29
2023-03-28T01:05:15.133Z,3.17
2023-03-28T01:07:49.392Z,3.14
2023-03-28T01:10:17.157Z,3.16
2023-03-28T01:12:45.211Z,2.97
2023-03-28T01:15:13.158Z,2.88
2023-03-28T01:17:41.809Z,2.80
2023-03-28T01:20:32.643Z,2.91
2023-03-28T01:23:36.006Z,2.91
2023-03-28T01:26:33.531Z,3.00
2023-03-28T01:29:47.024Z,3.16
2023-03-28T01:32:49.793Z,3.05
2023-03-28T01:35:58.876Z,2.93
2023-03-28T01:38:35.631Z,2.70
2023-03-28T01:41:09.646Z,2.69
2023-03-28T01:43:46.667Z,2.60
2023-03-28T01:46:18.778Z,2.59
2023-03-28T01:48:57.743Z,2.45
2023-03-28T01:51:30.896Z,2.54
2023-03-28T01:54:04.206Z,2.40
2023-03-28T01:56:39.494Z,2.32
2023-03-28T01:59:14.578Z,2.27
2023-03-28T02:01:51.664Z,2.35
2023-03-28T02:04:21.888Z,2.27
2023-03-28T02:06:52.885Z,2.24
2023-03-28T02:09:24.919Z,2.37
2023-03-28T02:11:57.133Z,2.40
2023-03-28T02:14:29.309Z,2.34
2023-03-28T02:17:04.827Z,2.40
2023-03-28T02:19:37.856Z,2.36
2023-03-28T02:22:16.747Z,2.32
2023-03-28T02:24:50.586Z,2.24
2023-03-28T02:27:19.657Z,2.24
2023-03-28T02:29:49.325Z,2.12
2023-03-28T02:32:17.328Z,2.17
2023-03-28T02:34:49.228Z,2.15
2023-03-28T02:37:30.668Z,2.18
2023-03-28T02:40:17.160Z,2.07
2023-03-28T02:43:10.808Z,1.96
2023-03-28T02:46:07.865Z,1.93
2023-03-28T02:48:54.502Z,1.96
2023-03-28T02:51:31.737Z,1.94
2023-03-28T02:54:10.922Z,1.89
2023-03-28T02:56:50.940Z,1.86
2023-03-28T02:59:24.955Z,1.80
2023-03-28T03:01:53.498Z,1.79
2023-03-28T03:04:21.451Z,1.84
2023-03-28T03:06:49.425Z,1.79
2023-03-28T03:09:18.708Z,1.81
2023-03-28T03:11:47.790Z,1.88
2023-03-28T03:14:15.769Z,1.86
2023-03-28T03:16:43.750Z,1.85
2023-03-28T03:19:11.580Z,1.84
2023-03-28T03:21:39.626Z,1.89
2023-03-28T03:24:09.777Z,1.90
2023-03-28T03:26:37.555Z,1.79
2023-03-28T03:29:06.743Z,1.79
2023-03-28T03:31:34.729Z,1.83
2023-03-28T03:34:02.979Z,1.83
2023-03-28T03:36:31.953Z,1.91
2023-03-28T03:39:00.001Z,1.82
2023-03-28T03:41:28.150Z,1.60
2023-03-28T03:43:55.886Z,1.61
2023-03-28T03:46:25.557Z,1.70
2023-03-28T03:48:53.485Z,1.59
2023-03-28T03:51:21.332Z,1.61
2023-03-28T03:53:50.583Z,1.63
2023-03-28T03:56:18.584Z,1.55
2023-03-28T03:58:46.821Z,1.48
2023-03-28T04:01:14.956Z,1.38
2023-03-28T04:03:44.281Z,1.31
2023-03-28T04:06:12.138Z,1.40
2023-03-28T04:08:40.034Z,1.28
2023-03-28T04:11:10.572Z,1.27
2023-03-28T04:13:38.526Z,1.17
2023-03-28T04:16:07.491Z,1.27
2023-03-28T04:18:35.707Z,1.38
2023-03-28T04:21:05.291Z,1.22
2023-03-28T04:23:34.010Z,1.16
2023-03-28T04:26:03.426Z,1.13
2023-03-28T04:28:31.411Z,1.12
2023-03-28T04:30:59.360Z,1.09
2023-03-28T04:33:28.162Z,0.98
2023-03-28T04:35:57.430Z,0.94
2023-03-28T04:38:28.721Z,1.06
2023-03-28T04:40:59.685Z,0.92
2023-03-28T04:43:28.080Z,0.87
2023-03-28T04:45:56.454Z,0.88
2023-03-28T04:48:25.441Z,0.66
2023-03-28T04:50:53.445Z,0.65
2023-03-28T04:53:21.829Z,0.65
2023-03-28T04:55:51.222Z,0.73
2023-03-28T04:58:20.609Z,0.76
2023-03-28T05:00:49.710Z,0.75
2023-03-28T05:03:20.335Z,0.82
2023-03-28T05:05:49.939Z,0.84
2023-03-28T05:08:19.158Z,0.82
2023-03-28T05:10:47.121Z,0.82
2023-03-28T05:13:17.124Z,0.76
2023-03-28T05:15:45.002Z,0.78
2023-03-28T05:18:12.917Z,0.79
2023-03-28T05:20:40.983Z,0.78
2023-03-28T05:23:09.410Z,0.79
2023-03-28T05:25:37.509Z,0.85
2023-03-28T05:28:06.079Z,0.91
2023-03-28T05:30:35.729Z,0.94
2023-03-28T05:33:04.152Z,0.92
2023-03-28T05:35:32.051Z,0.96
2023-03-28T05:37:59.870Z,0.94
2023-03-28T05:40:27.756Z,0.91
2023-03-28T05:42:55.512Z,0.96
2023-03-28T05:45:23.381Z,0.95
2023-03-28T05:47:54.538Z,1.08
2023-03-28T05:50:22.464Z,1.15
2023-03-28T05:52:50.379Z,1.27
2023-03-28T05:55:18.367Z,1.39
2023-03-28T05:57:46.132Z,1.54
2023-03-28T06:00:15.334Z,1.68
2023-03-28T06:02:43.431Z,1.75
2023-03-28T06:05:13.836Z,1.93
2023-03-28T06:07:43.178Z,2.05
2023-03-28T06:10:13.100Z,2.19
2023-03-28T06:12:41.511Z,2.32
2023-03-28T06:15:10.010Z,2.44
2023-03-28T06:17:37.896Z,2.72
2023-03-28T06:20:07.157Z,2.81
2023-03-28T06:22:36.650Z,3.04
2023-03-28T06:25:06.252Z,3.38
2023-03-28T06:27:34.266Z,3.56
2023-03-28T06:30:02.889Z,3.89
2023-03-28T06:32:30.727Z,3.79
2023-03-28T06:34:58.551Z,4.11
2023-03-28T06:37:27.048Z,4.35
2023-03-28T06:39:56.383Z,4.86
2023-03-28T06:42:24.130Z,5.09
2023-03-28T06:44:52.652Z,5.18
2023-03-28T06:47:20.842Z,5.51
2023-03-28T06:49:48.749Z,5.43
2023-03-28T06:52:16.780Z,5.42
2023-03-28T06:54:46.072Z,5.68
2023-03-28T06:57:17.737Z,5.90
2023-03-28T06:59:45.676Z,6.37
2023-03-28T07:02:13.611Z,6.51
2023-03-28T07:04:41.782Z,7.13
2023-03-28T07:07:10.127Z,6.65
2023-03-28T07:09:38.315Z,6.57
2023-03-28T07:12:06.681Z,7.35
2023-03-28T07:14:36.474Z,7.51
2023-03-28T07:17:04.277Z,7.71
2023-03-28T07:19:32.159Z,8.25
2023-03-28T07:22:00.003Z,8.20
2023-03-28T07:24:27.944Z,8.51
2023-03-28T07:27:11.809Z,8.21
2023-03-28T07:29:44.569Z,7.97
2023-03-28T07:32:12.563Z,8.93
2023-03-28T07:34:40.671Z,9.07
2023-03-28T07:37:09.535Z,9.99
2023-03-28T07:39:39.927Z,10.20
2023-03-28T07:42:10.993Z,10.25
2023-03-28T07:44:40.330Z,10.63
2023-03-28T07:47:12.142Z,10.48
2023-03-28T07:49:41.070Z,10.99
2023-03-28T07:52:09.702Z,9.94
2023-03-28T07:54:37.559Z,10.60
2023-03-28T07:57:05.424Z,10.83
2023-03-28T07:59:33.228Z,10.77
2023-03-28T08:02:01.150Z,11.33
2023-03-28T08:04:30.436Z,12.26
2023-03-28T08:06:58.187Z,11.02
2023-03-28T08:09:26.005Z,11.16
2023-03-28T08:11:55.229Z,12.44
2023-03-28T08:14:23.050Z,11.36
2023-03-28T08:16:51.996Z,10.40
2023-03-28T08:19:19.845Z,8.90
2023-03-28T08:21:50.918Z,10.52
2023-03-28T08:24:28.963Z,11.37
2023-03-28T08:27:00.936Z,12.00
2023-03-28T08:29:28.725Z,10.93
2023-03-28T08:31:56.606Z,9.11
2023-03-28T08:34:24.588Z,8.29
2023-03-28T08:36:54.003Z,7.90
2023-03-28T08:39:21.811Z,8.09
2023-03-28T08:42:16.520Z,9.89
2023-03-28T08:45:10.846Z,12.63
2023-03-28T08:47:48.665Z,11.54
2023-03-28T08:50:20.730Z,11.64
2023-03-28T08:52:49.824Z,10.38
2023-03-28T08:55:30.641Z,11.20
2023-03-28T08:57:59.791Z,11.61
2023-03-28T09:00:31.272Z,12.46
2023-03-28T09:02:59.902Z,12.16
2023-03-28T09:05:38.866Z,13.29
2023-03-28T09:08:29.254Z,13.42
2023-03-28T09:11:02.804Z,12.36
2023-03-28T09:13:40.477Z,12.63
2023-03-28T09:16:26.632Z,12.87
2023-03-28T09:19:10.805Z,14.50
2023-03-28T09:21:50.699Z,13.41
2023-03-28T09:24:41.424Z,14.15
2023-03-28T09:27:18.895Z,14.49
2023-03-28T09:29:48.541Z,14.51
2023-03-28T09:32:23.776Z,12.28
2023-03-28T09:34:52.852Z,14.48
2023-03-28T09:37:29.611Z,14.19
2023-03-28T09:40:03.769Z,12.74
2023-03-28T09:42:39.570Z,13.58
2023-03-28T09:45:27.314Z,13.78
2023-03-28T09:47:55.394Z,13.43
2023-03-28T09:50:23.717Z,15.07
2023-03-28T09:52:51.985Z,15.61
2023-03-28T09:55:23.218Z,14.70
2023-03-28T09:58:02.352Z,15.19
2023-03-28T10:00:30.697Z,13.70
2023-03-28T10:02:58.459Z,13.37
2023-03-28T10:05:35.424Z,14.61
2023-03-28T10:08:06.776Z,15.50
2023-03-28T10:10:36.258Z,15.42
2023-03-28T10:13:05.791Z,16.35
2023-03-28T10:15:39.781Z,16.29
2023-03-28T10:18:07.906Z,17.29
2023-03-28T10:20:38.854Z,17.04
2023-03-28T10:23:06.921Z,16.18
2023-03-28T10:25:39.076Z,15.05
2023-03-28T10:28:08.752Z,16.21
2023-03-28T10:30:37.913Z,16.08
2023-03-28T10:33:21.281Z,16.05
2023-03-28T10:35:55.828Z,14.27
2023-03-28T10:38:26.220Z,15.15
2023-03-28T10:41:02.026Z,14.61
2023-03-28T10:43:36.596Z,14.50
2023-03-28T10:46:09.731Z,16.51
2023-03-28T10:48:39.463Z,16.84
2023-03-28T10:51:15.168Z,15.95
2023-03-28T10:53:55.246Z,15.35
2023-03-28T10:56:33.939Z,15.73
2023-03-28T10:59:18.939Z,16.36
2023-03-28T11:01:58.262Z,15.81
2023-03-28T11:04:41.442Z,16.47
2023-03-28T11:07:13.436Z,16.07
2023-03-28T11:09:47.792Z,17.45
2023-03-28T11:12:43.730Z,15.68
2023-03-28T11:15:23.048Z,17.44
2023-03-28T11:18:02.320Z,15.94
2023-03-28T11:20:37.400Z,15.83
2023-03-28T11:23:31.339Z,16.49
2023-03-28T11:26:03.062Z,17.21
2023-03-28T11:28:46.740Z,17.35
2023-03-28T11:31:19.615Z,15.99
2023-03-28T11:33:56.234Z,16.97
2023-03-28T11:36:30.110Z,16.01
2023-03-28T11:39:05.787Z,15.74
2023-03-28T11:41:39.682Z,14.08
2023-03-28T11:44:15.781Z,14.73
2023-03-28T11:46:48.011Z,16.63
2023-03-28T11:49:22.741Z,17.79
2023-03-28T11:51:59.477Z,16.11
2023-03-28T11:54:34.450Z,15.72
2023-03-28T11:57:07.599Z,18.05
2023-03-28T11:59:43.161Z,17.60
2023-03-28T12:02:23.351Z,17.43
2023-03-28T12:04:57.050Z,16.32
2023-03-28T12:07:33.138Z,17.53
2023-03-28T12:10:08.797Z,19.47
2023-03-28T12:12:44.278Z,19.22
2023-03-28T12:15:17.636Z,18.89
2023-03-28T12:17:48.669Z,19.77
2023-03-28T12:20:25.140Z,19.42
2023-03-28T12:22:57.477Z,19.01
2023-03-28T12:25:31.135Z,17.40
2023-03-28T12:28:05.220Z,19.36
2023-03-28T12:30:41.232Z,18.73
2023-03-28T12:33:20.211Z,16.50
2023-03-28T12:35:53.674Z,17.00
2023-03-28T12:38:31.749Z,16.64
2023-03-28T12:41:03.824Z,17.24
2023-03-28T12:43:46.966Z,15.60
2023-03-28T12:46:20.151Z,16.52
2023-03-28T12:48:52.970Z,14.86
2023-03-28T12:51:27.975Z,15.52
2023-03-28T12:54:17.875Z,15.65
2023-03-28T12:56:47.514Z,14.43
2023-03-28T12:59:37.767Z,13.99
2023-03-28T13:02:14.795Z,14.37
2023-03-28T13:04:51.909Z,14.19
2023-03-28T13:07:28.140Z,14.30
2023-03-28T13:10:02.395Z,15.04
2023-03-28T13:12:53.226Z,14.17
2023-03-28T13:15:34.741Z,14.22
2023-03-28T13:18:35.666Z,14.64
2023-03-28T13:21:07.317Z,14.00
2023-03-28T13:23:47.796Z,13.66
2023-03-28T13:26:15.971Z,14.43
2023-03-28T13:28:46.754Z,13.64
2023-03-28T13:31:22.307Z,15.07
2023-03-28T13:33:55.109Z,14.44
2023-03-28T13:36:34.420Z,14.72
2023-03-28T13:39:21.624Z,16.45
2023-03-28T13:42:01.938Z,17.56
2023-03-28T13:44:40.300Z,17.52
2023-03-28T13:47:16.386Z,17.09
2023-03-28T13:49:51.866Z,15.79
2023-03-28T13:52:23.814Z,17.53
2023-03-28T13:54:54.262Z,17.01
2023-03-28T13:57:26.078Z,17.40
2023-03-28T13:59:55.219Z,17.62
2023-03-28T14:02:32.651Z,17.66
2023-03-28T14:05:14.140Z,17.38
2023-03-28T14:07:42.745Z,17.04
2023-03-28T14:10:29.658Z,16.43
2023-03-28T14:13:01.126Z,16.15
2023-03-28T14:15:33.621Z,16.17
2023-03-28T14:18:03.007Z,15.05
2023-03-28T14:20:34.520Z,15.69
2023-03-28T14:23:02.501Z,14.52
2023-03-28T14:25:31.522Z,13.96
2023-03-28T14:28:08.396Z,15.44
2023-03-28T14:30:40.745Z,16.26
2023-03-28T14:33:20.517Z,15.25
2023-03-28T14:35:59.344Z,16.49
2023-03-28T14:38:33.220Z,17.29
2023-03-28T14:41:19.055Z,18.20
2023-03-28T14:43:52.083Z,16.04
2023-03-28T14:46:24.665Z,15.01
2023-03-28T14:48:53.906Z,14.46
2023-03-28T14:51:23.389Z,14.44
2023-03-28T14:53:52.584Z,14.78
2023-03-28T14:56:25.743Z,13.15
2023-03-28T14:58:56.603Z,13.59
2023-03-28T15:01:27.146Z,13.13
2023-03-28T15:03:59.800Z,13.44
2023-03-28T15:06:29.621Z,12.96
2023-03-28T15:08:59.779Z,13.17
2023-03-28T15:11:32.706Z,13.07
2023-03-28T15:14:04.737Z,13.38
2023-03-28T15:16:37.743Z,12.84
2023-03-28T15:19:08.560Z,13.30
2023-03-28T15:21:39.885Z,13.40
2023-03-28T15:24:13.041Z,12.80
2023-03-28T15:26:45.122Z,12.05
2023-03-28T15:29:16.411Z,11.98
2023-03-28T15:31:44.592Z,11.68
2023-03-28T15:34:19.943Z,11.88
2023-03-28T15:36:52.759Z,11.98
2023-03-28T15:39:25.597Z,11.95
2023-03-28T15:41:56.502Z,11.89
2023-03-28T15:44:29.108Z,12.11
2023-03-28T15:47:00.552Z,12.47
2023-03-28T15:49:29.461Z,13.34
2023-03-28T15:52:02.740Z,13.35
2023-03-28T15:54:32.406Z,14.16
2023-03-28T15:57:03.106Z,14.85
2023-03-28T15:59:36.353Z,14.83
2023-03-28T16:02:22.346Z,15.12
2023-03-28T16:05:01.017Z,15.63
2023-03-28T16:07:34.534Z,14.47
2023-03-28T16:10:02.389Z,14.37
2023-03-28T16:12:30.139Z,13.87
2023-03-28T16:14:57.892Z,13.26
2023-03-28T16:17:26.143Z,12.70
2023-03-28T16:19:54.350Z,12.24
2023-03-28T16:22:22.204Z,11.11
2023-03-28T16:24:52.072Z,11.19
2023-03-28T16:27:20.762Z,11.08
2023-03-28T16:29:49.032Z,11.07
2023-03-28T16:32:17.337Z,11.18
2023-03-28T16:34:45.495Z,11.09
2023-03-28T16:37:13.350Z,10.83
2023-03-28T16:39:41.449Z,10.72
2023-03-28T16:42:10.727Z,10.40
2023-03-28T16:44:38.676Z,10.40
2023-03-28T16:47:06.673Z,10.49
2023-03-28T16:49:34.426Z,10.40
2023-03-28T16:52:02.203Z,10.65
2023-03-28T16:54:29.973Z,10.71
2023-03-28T16:56:57.835Z,10.09
2023-03-28T16:59:27.217Z,9.92
2023-03-28T17:01:55.087Z,9.85
2023-03-28T17:04:23.158Z,9.38
2023-03-28T17:06:51.054Z,9.41
2023-03-28T17:09:18.829Z,9.10
2023-03-28T17:11:46.925Z,9.09
2023-03-28T17:14:14.700Z,9.19
2023-03-28T17:16:45.100Z,9.34
2023-03-28T17:19:14.160Z,9.40
2023-03-28T17:21:42.019Z,9.33
2023-03-28T17:24:11.595Z,9.23
2023-03-28T17:26:39.376Z,9.23
2023-03-28T17:29:09.650Z,9.16
2023-03-28T17:31:37.877Z,9.04
2023-03-28T17:34:07.550Z,8.78
2023-03-28T17:36:35.851Z,8.64
2023-03-28T17:39:05.068Z,8.44
2023-03-28T17:41:33.138Z,8.50
2023-03-28T17:44:00.904Z,8.30
2023-03-28T17:46:29.190Z,8.33
2023-03-28T17:48:57.151Z,8.33
2023-03-28T17:51:26.373Z,8.47
2023-03-28T17:53:54.293Z,8.24
2023-03-28T17:56:23.340Z,8.01
2023-03-28T17:58:51.864Z,8.09
2023-03-28T18:01:20.321Z,7.97
2023-03-28T18:03:48.439Z,7.86
2023-03-28T18:06:16.944Z,7.78
2023-03-28T18:08:46.373Z,7.84
2023-03-28T18:11:17.760Z,7.91
2023-03-28T18:13:45.686Z,7.65
2023-03-28T18:16:15.531Z,7.62
2023-03-28T18:18:43.348Z,7.80
2023-03-28T18:21:11.600Z,7.80
2023-03-28T18:23:39.893Z,7.85
2023-03-28T18:26:09.492Z,7.98
2023-03-28T18:28:37.494Z,7.81
2023-03-28T18:31:10.074Z,7.85
2023-03-28T18:33:38.620Z,7.89
2023-03-28T18:36:07.380Z,7.83
2023-03-28T18:38:39.953Z,7.72
2023-03-28T18:41:09.456Z,7.85
2023-03-28T18:43:38.158Z,7.83
2023-03-28T18:46:07.819Z,7.74
2023-03-28T18:48:36.529Z,7.50
2023-03-28T18:51:06.455Z,7.74
2023-03-28T18:53:34.878Z,7.63
2023-03-28T18:56:03.347Z,7.57
2023-03-28T18:58:33.303Z,7.71
2023-03-28T19:01:03.549Z,7.95
2023-03-28T19:03:34.615Z,7.66
2023-03-28T19:06:03.679Z,7.66
2023-03-28T19:08:32.523Z,7.58
2023-03-28T19:11:01.593Z,7.65
2023-03-28T19:13:30.496Z,7.65
2023-03-28T19:16:00.485Z,7.67
2023-03-28T19:18:28.507Z,7.54
2023-03-28T19:20:58.515Z,7.48
2023-03-28T19:23:28.093Z,7.71
2023-03-28T19:25:56.371Z,7.59
2023-03-28T19:28:24.372Z,7.52
2023-03-28T19:30:58.648Z,7.49
2023-03-28T19:33:28.623Z,7.36
2023-03-28T19:35:56.962Z,7.28
2023-03-28T19:38:26.461Z,7.52
2023-03-28T19:40:58.536Z,7.41
2023-03-28T19:43:26.494Z,7.53
2023-03-28T19:45:54.369Z,7.44
2023-03-28T19:48:22.482Z,7.48
2023-03-28T19:50:51.632Z,7.57
2023-03-28T19:53:19.397Z,7.49
2023-03-28T19:55:52.190Z,7.50
2023-03-28T19:58:20.593Z,7.57
2023-03-28T20:00:49.192Z,7.66
2023-03-28T20:03:17.679Z,7.55
2023-03-28T20:05:46.765Z,7.59
2023-03-28T20:08:18.683Z,7.52
2023-03-28T20:10:48.589Z,7.68
2023-03-28T20:13:18.252Z,7.54
2023-03-28T20:15:47.170Z,7.60
2023-03-28T20:18:19.689Z,7.68
2023-03-28T20:20:50.036Z,7.66
2023-03-28T20:23:20.266Z,7.56
2023-03-28T20:25:48.458Z,7.57
2023-03-28T20:28:16.486Z,7.67
2023-03-28T20:30:46.892Z,7.74
2023-03-28T20:33:14.757Z,7.65
2023-03-28T20:35:42.807Z,7.46
2023-03-28T20:38:11.206Z,7.62
2023-03-28T20:40:41.519Z,7.84
2023-03-28T20:43:11.796Z,7.66
2023-03-28T20:45:39.818Z,7.50
2023-03-28T20:48:10.633Z,7.42
2023-03-28T20:50:41.422Z,7.44
2023-03-28T20:53:09.725Z,7.31
2023-03-28T20:55:37.798Z,7.30
2023-03-28T20:58:08.709Z,7.28
2023-03-28T21:00:36.515Z,7.37
2023-03-28T21:03:04.342Z,7.33
2023-03-28T21:05:33.259Z,7.32
2023-03-28T21:08:02.255Z,7.32
2023-03-28T21:10:30.196Z,7.42
2023-03-28T21:12:57.925Z,7.52
2023-03-28T21:15:28.208Z,7.60
2023-03-28T21:17:56.060Z,7.67
2023-03-28T21:20:23.844Z,7.63
2023-03-28T21:22:51.544Z,7.85
2023-03-28T21:25:21.297Z,8.08
2023-03-28T21:27:49.286Z,8.05
2023-03-28T21:30:17.816Z,8.19
2023-03-28T21:32:47.929Z,7.90
2023-03-28T21:35:16.268Z,7.87
2023-03-28T21:37:44.052Z,7.88
2023-03-28T21:40:12.756Z,7.81
2023-03-28T21:42:40.879Z,7.83
2023-03-28T21:45:11.729Z,7.95
2023-03-28T21:47:41.538Z,7.89
2023-03-28T21:50:14.455Z,7.94
2023-03-28T21:52:42.717Z,7.94
2023-03-28T21:55:11.389Z,8.10
2023-03-28T21:57:39.141Z,8.22
2023-03-28T22:00:14.984Z,8.54
2023-03-28T22:02:43.441Z,8.53
2023-03-28T22:05:26.175Z,8.68
2023-03-28T22:07:56.596Z,8.72
2023-03-28T22:10:26.553Z,8.57
2023-03-28T22:12:54.745Z,8.47
2023-03-28T22:15:22.532Z,8.48
2023-03-28T22:17:50.631Z,8.58
2023-03-28T22:20:22.565Z,8.70
2023-03-28T22:22:50.258Z,8.71
2023-03-28T22:25:19.119Z,8.65
2023-03-28T22:27:47.027Z,8.70
2023-03-28T22:30:15.575Z,8.75
2023-03-28T22:32:43.376Z,8.76
2023-03-28T22:35:12.197Z,8.77
2023-03-28T22:37:41.512Z,8.83
2023-03-28T22:40:11.361Z,8.85
2023-03-28T22:42:39.146Z,8.85
2023-03-28T22:45:08.047Z,8.84
2023-03-28T22:47:39.393Z,8.74
2023-03-28T22:50:09.197Z,8.79
2023-03-28T22:52:38.013Z,8.45
2023-03-28T22:55:09.057Z,8.31
2023-03-28T22:57:37.000Z,8.31
2023-03-28T23:00:08.362Z,8.11
2023-03-28T23:02:36.565Z,8.08
2023-03-28T23:05:05.754Z,8.08
2023-03-28T23:07:35.003Z,8.28
2023-03-28T23:10:03.625Z,7.64
2023-03-28T23:12:32.743Z,7.57
2023-03-28T23:15:00.599Z,7.50
2023-03-28T23:17:28.480Z,7.59
2023-03-28T23:19:56.331Z,7.55
2023-03-28T23:22:24.199Z,7.53
2023-03-28T23:24:52.237Z,7.38
2023-03-28T23:27:20.786Z,7.35
2023-03-28T23:29:49.928Z,7.52
2023-03-28T23:32:17.704Z,7.51
2023-03-28T23:34:45.499Z,7.22
2023-03-28T23:37:14.093Z,7.23
2023-03-28T23:39:41.981Z,7.06
2023-03-28T23:42:09.769Z,7.22
2023-03-28T23:44:37.820Z,7.11
2023-03-28T23:47:07.061Z,7.31
2023-03-28T23:49:34.921Z,7.25
2023-03-28T23:52:02.767Z,7.48
2023-03-28T23:54:30.939Z,7.56
2023-03-28T23:56:58.915Z,7.32
2023-03-28T23:59:26.755Z,7.34
